createdAt,value
2022-10-22T00:00:02.288Z,49.40
2022-10-22T00:02:28.877Z,49.64
2022-10-22T00:04:57.119Z,49.55
2022-10-22T00:07:23.990Z,49.73
2022-10-22T00:09:50.539Z,49.06
2022-10-22T00:12:17.565Z,49.30
2022-10-22T00:14:44.100Z,49.13
2022-10-22T00:17:11.518Z,49.68
2022-10-22T00:19:39.025Z,49.42
2022-10-22T00:22:06.196Z,49.55
2022-10-22T00:24:33.903Z,49.50
2022-10-22T00:27:00.653Z,49.72
2022-10-22T00:29:27.226Z,49.70
2022-10-22T00:34:25.243Z,49.37
2022-10-22T00:36:52.263Z,49.39
2022-10-22T00:39:20.841Z,49.20
2022-10-22T00:41:48.321Z,49.46
2022-10-22T00:44:52.186Z,49.31
2022-10-22T00:47:19.043Z,49.41
2022-10-22T00:49:46.708Z,49.47
2022-10-22T00:52:14.205Z,49.66
2022-10-22T00:54:41.624Z,49.87
2022-10-22T00:57:08.739Z,49.64
2022-10-22T00:59:35.637Z,49.27
2022-10-22T01:02:02.172Z,49.34
2022-10-22T01:04:28.717Z,49.26
2022-10-22T01:06:55.400Z,49.24
2022-10-22T01:09:39.072Z,49.47
2022-10-22T01:12:28.488Z,49.47
2022-10-22T01:15:22.395Z,49.72
2022-10-22T01:17:59.902Z,49.41
2022-10-22T01:21:00.238Z,49.51
2022-10-22T01:23:57.061Z,49.74
2022-10-22T01:26:32.562Z,49.55
2022-10-22T01:29:12.080Z,49.20
2022-10-22T01:31:44.537Z,49.32
2022-10-22T01:34:12.274Z,49.39
2022-10-22T01:36:39.009Z,49.84
2022-10-22T01:39:05.995Z,49.49
2022-10-22T01:41:32.527Z,49.73
2022-10-22T01:43:59.057Z,49.71
2022-10-22T01:46:27.317Z,49.53
2022-10-22T01:49:04.875Z,49.45
2022-10-22T01:51:46.688Z,49.49
2022-10-22T01:54:33.582Z,49.41
2022-10-22T01:57:18.849Z,49.61
2022-10-22T02:00:13.708Z,49.28
2022-10-22T02:02:49.389Z,49.60
2022-10-22T02:05:32.121Z,49.25
2022-10-22T02:08:22.845Z,49.49
2022-10-22T02:10:49.711Z,49.40
2022-10-22T02:13:19.564Z,49.36
2022-10-22T02:15:46.886Z,49.61
2022-10-22T02:18:13.952Z,49.28
2022-10-22T02:20:41.964Z,49.13
2022-10-22T02:23:09.932Z,49.38
2022-10-22T02:25:39.652Z,49.60
2022-10-22T02:29:01.073Z,49.21
2022-10-22T02:31:32.812Z,49.17
2022-10-22T02:34:04.948Z,49.20
2022-10-22T02:36:32.235Z,49.25
2022-10-22T02:38:59.293Z,49.49
2022-10-22T02:41:25.875Z,49.32
2022-10-22T02:43:54.946Z,49.27
2022-10-22T02:46:21.798Z,49.45
2022-10-22T02:48:48.428Z,49.37
2022-10-22T02:51:14.957Z,49.41
2022-10-22T02:53:41.591Z,49.22
2022-10-22T02:56:08.288Z,49.18
2022-10-22T02:58:35.168Z,49.56
2022-10-22T03:01:01.760Z,49.28
2022-10-22T03:03:28.331Z,49.16
2022-10-22T03:05:54.883Z,49.37
2022-10-22T03:08:21.451Z,49.13
2022-10-22T03:10:48.013Z,49.14
2022-10-22T03:13:14.584Z,49.40
2022-10-22T03:15:41.118Z,49.25
2022-10-22T03:18:07.684Z,49.33
2022-10-22T03:20:34.220Z,49.13
2022-10-22T03:23:01.404Z,49.22
2022-10-22T03:25:28.592Z,49.44
2022-10-22T03:27:57.406Z,49.43
2022-10-22T03:30:23.942Z,49.36
2022-10-22T03:32:50.516Z,49.07
2022-10-22T03:35:17.060Z,49.44
2022-10-22T03:37:43.830Z,49.43
2022-10-22T03:40:11.585Z,49.06
2022-10-22T03:42:38.360Z,49.16
2022-10-22T03:45:05.585Z,49.09
2022-10-22T03:47:32.176Z,49.04
2022-10-22T03:49:58.701Z,49.20
2022-10-22T03:52:25.277Z,49.41
2022-10-22T03:54:51.846Z,49.21
2022-10-22T03:57:18.470Z,49.33
2022-10-22T03:59:46.545Z,48.96
2022-10-22T04:02:14.228Z,49.36
2022-10-22T04:04:40.770Z,49.18
2022-10-22T04:07:07.689Z,49.16
2022-10-22T04:09:34.773Z,49.15
2022-10-22T04:12:01.560Z,49.17
2022-10-22T04:14:28.155Z,49.20
2022-10-22T04:16:54.750Z,49.25
2022-10-22T04:19:21.373Z,49.48
2022-10-22T04:21:47.900Z,49.41
2022-10-22T04:24:14.460Z,49.32
2022-10-22T04:26:41.176Z,49.30
2022-10-22T04:29:11.844Z,49.29
2022-10-22T04:31:41.786Z,49.22
2022-10-22T04:34:08.317Z,49.48
2022-10-22T04:36:34.874Z,49.13
2022-10-22T04:39:02.197Z,49.15
2022-10-22T04:41:31.036Z,49.21
2022-10-22T04:43:58.256Z,49.27
2022-10-22T04:46:26.488Z,49.04
2022-10-22T04:48:53.441Z,49.33
2022-10-22T04:51:21.628Z,49.23
2022-10-22T04:53:48.701Z,49.26
2022-10-22T04:56:16.617Z,49.44
2022-10-22T04:58:44.104Z,49.08
2022-10-22T05:01:16.885Z,49.11
2022-10-22T05:03:43.982Z,49.45
2022-10-22T05:06:10.738Z,49.07
2022-10-22T05:08:37.501Z,49.28
2022-10-22T05:11:27.840Z,49.11
2022-10-22T05:13:56.409Z,49.35
2022-10-22T05:16:23.295Z,49.11
2022-10-22T05:18:49.866Z,48.97
2022-10-22T05:21:18.220Z,49.09
2022-10-22T05:23:45.957Z,48.92
2022-10-22T05:26:13.758Z,49.11
2022-10-22T05:28:40.750Z,49.40
2022-10-22T05:31:09.082Z,49.27
2022-10-22T05:33:35.642Z,49.33
2022-10-22T05:36:03.836Z,49.17
2022-10-22T05:38:30.424Z,49.16
2022-10-22T05:41:05.199Z,49.19
2022-10-22T05:43:32.040Z,49.18
2022-10-22T05:46:03.959Z,49.02
2022-10-22T05:51:08.368Z,49.04
2022-10-22T05:53:36.589Z,48.90
2022-10-22T05:56:05.447Z,49.17
2022-10-22T05:58:32.440Z,49.23
2022-10-22T06:01:12.581Z,49.41
2022-10-22T06:03:39.322Z,49.46
2022-10-22T06:06:14.352Z,49.21
2022-10-22T06:08:41.066Z,49.29
2022-10-22T06:11:07.660Z,49.15
2022-10-22T06:13:34.199Z,49.28
2022-10-22T06:16:00.736Z,49.27
2022-10-22T06:18:27.411Z,48.95
2022-10-22T06:20:53.977Z,49.08
2022-10-22T06:23:20.515Z,48.81
2022-10-22T06:25:56.555Z,49.26
2022-10-22T06:30:50.534Z,49.32
2022-10-22T06:33:17.079Z,49.08
2022-10-22T06:35:45.222Z,48.90
2022-10-22T06:38:11.869Z,48.90
2022-10-22T06:40:38.787Z,49.17
2022-10-22T06:43:06.131Z,48.95
2022-10-22T06:45:32.998Z,48.94
2022-10-22T06:47:59.581Z,48.91
2022-10-22T06:50:26.165Z,49.19
2022-10-22T06:52:52.779Z,49.13
2022-10-22T06:55:19.357Z,52.02
2022-10-22T06:57:45.928Z,52.72
2022-10-22T07:00:13.154Z,52.95
2022-10-22T07:02:40.053Z,53.05
2022-10-22T07:05:07.308Z,52.79
2022-10-22T07:07:33.856Z,52.99
2022-10-22T07:10:00.412Z,52.75
2022-10-22T07:12:26.984Z,53.07
2022-10-22T07:14:53.535Z,52.67
2022-10-22T07:17:20.052Z,54.82
2022-10-22T07:19:49.691Z,57.26
2022-10-22T07:22:17.851Z,58.11
2022-10-22T07:24:44.490Z,56.89
2022-10-22T07:27:11.854Z,56.85
2022-10-22T07:29:38.456Z,57.54
2022-10-22T07:32:05.107Z,57.65
2022-10-22T07:34:31.667Z,57.71
2022-10-22T07:36:58.269Z,57.60
2022-10-22T07:39:25.926Z,56.70
2022-10-22T07:41:52.809Z,56.07
2022-10-22T07:44:19.361Z,55.65
2022-10-22T07:46:48.821Z,55.86
2022-10-22T07:49:15.669Z,55.62
2022-10-22T07:51:42.234Z,55.20
2022-10-22T07:54:08.778Z,55.41
2022-10-22T07:56:35.322Z,55.01
2022-10-22T08:01:33.388Z,54.96
2022-10-22T08:04:00.008Z,54.61
2022-10-22T08:06:26.553Z,54.17
2022-10-22T08:08:53.203Z,54.43
2022-10-22T08:11:19.768Z,54.16
2022-10-22T08:13:46.424Z,53.98
2022-10-22T08:16:13.593Z,53.99
2022-10-22T08:18:40.149Z,53.66
2022-10-22T08:21:06.926Z,53.90
2022-10-22T08:23:34.389Z,53.86
2022-10-22T08:26:00.987Z,53.83
2022-10-22T08:28:29.576Z,53.48
2022-10-22T08:30:56.287Z,54.08
2022-10-22T08:33:22.828Z,53.52
2022-10-22T08:35:50.726Z,53.73
2022-10-22T08:38:17.696Z,53.51
2022-10-22T08:43:34.204Z,53.44
2022-10-22T08:46:09.455Z,53.75
2022-10-22T08:48:35.917Z,53.46
2022-10-22T08:51:02.479Z,53.65
2022-10-22T08:53:52.596Z,53.65
2022-10-22T08:56:19.216Z,53.87
2022-10-22T08:58:53.872Z,54.03
2022-10-22T09:01:36.764Z,54.59
2022-10-22T09:04:44.528Z,53.91
2022-10-22T09:07:11.196Z,54.10
2022-10-22T09:09:43.162Z,54.16
2022-10-22T09:12:19.315Z,53.92
2022-10-22T09:14:47.033Z,53.98
2022-10-22T09:17:37.532Z,53.72
2022-10-22T09:20:45.113Z,53.07
2022-10-22T09:23:38.656Z,53.48
2022-10-22T09:26:13.201Z,53.62
2022-10-22T09:28:39.770Z,53.66
2022-10-22T09:31:14.233Z,53.02
2022-10-22T09:33:42.390Z,53.24
2022-10-22T09:36:13.833Z,53.04
2022-10-22T09:38:45.222Z,53.25
2022-10-22T09:41:12.223Z,52.75
2022-10-22T09:43:38.887Z,53.29
2022-10-22T09:46:07.912Z,52.92
2022-10-22T09:48:37.473Z,53.12
2022-10-22T09:51:36.173Z,52.78
2022-10-22T09:54:16.706Z,53.06
2022-10-22T09:56:47.997Z,52.98
2022-10-22T09:59:16.056Z,53.29
2022-10-22T10:01:42.941Z,53.27
2022-10-22T10:04:15.318Z,52.95
2022-10-22T10:06:44.123Z,52.92
2022-10-22T10:09:17.914Z,53.02
2022-10-22T10:12:03.225Z,52.94
2022-10-22T10:14:35.504Z,53.48
2022-10-22T10:17:24.203Z,53.04
2022-10-22T10:20:03.854Z,52.95
2022-10-22T10:22:49.066Z,52.81
2022-10-22T10:25:36.821Z,52.66
2022-10-22T10:28:22.896Z,52.72
2022-10-22T10:31:16.267Z,52.66
2022-10-22T10:33:54.413Z,52.40
2022-10-22T10:37:06.093Z,52.28
2022-10-22T10:39:51.322Z,52.31
2022-10-22T10:42:37.785Z,52.60
2022-10-22T10:45:18.096Z,52.13
2022-10-22T10:48:22.890Z,52.26
2022-10-22T10:51:15.859Z,52.22
2022-10-22T10:54:03.552Z,52.49
2022-10-22T10:56:39.244Z,52.31
2022-10-22T10:59:44.194Z,52.28
2022-10-22T11:02:16.680Z,52.05
2022-10-22T11:05:07.521Z,52.09
2022-10-22T11:07:57.122Z,52.17
2022-10-22T11:10:39.044Z,52.38
2022-10-22T11:13:15.417Z,52.27
2022-10-22T11:15:43.161Z,52.54
2022-10-22T11:18:20.863Z,52.57
2022-10-22T11:20:53.873Z,52.39
2022-10-22T11:24:05.376Z,52.61
2022-10-22T11:26:34.992Z,52.40
2022-10-22T11:29:03.548Z,52.56
2022-10-22T11:31:30.820Z,52.67
2022-10-22T11:34:05.039Z,52.88
2022-10-22T11:36:37.075Z,53.13
2022-10-22T11:39:04.500Z,52.77
2022-10-22T11:41:33.319Z,53.00
2022-10-22T11:44:10.718Z,53.01
2022-10-22T11:47:14.790Z,52.88
2022-10-22T11:49:43.661Z,52.65
2022-10-22T11:52:32.810Z,52.71
2022-10-22T11:55:02.417Z,52.70
2022-10-22T11:57:39.341Z,52.84
2022-10-22T12:00:29.265Z,52.90
2022-10-22T12:03:06.007Z,53.08
2022-10-22T12:05:35.268Z,52.75
2022-10-22T12:08:14.769Z,52.72
2022-10-22T12:11:03.039Z,52.96
2022-10-22T12:14:12.183Z,52.49
2022-10-22T12:16:55.864Z,52.74
2022-10-22T12:19:23.330Z,52.78
2022-10-22T12:21:55.389Z,53.23
2022-10-22T12:24:24.143Z,53.00
2022-10-22T12:26:52.669Z,53.18
2022-10-22T12:29:23.719Z,53.22
2022-10-22T12:31:50.558Z,52.94
2022-10-22T12:34:20.591Z,52.65
2022-10-22T12:36:48.475Z,53.14
2022-10-22T12:39:24.189Z,52.77
2022-10-22T12:41:52.524Z,52.58
2022-10-22T12:44:19.385Z,52.31
2022-10-22T12:46:51.699Z,52.37
2022-10-22T12:49:23.792Z,52.68
2022-10-22T12:51:50.336Z,52.56
2022-10-22T12:54:26.434Z,52.15
2022-10-22T12:56:53.858Z,52.11
2022-10-22T12:59:50.721Z,51.90
2022-10-22T13:02:22.811Z,52.32
2022-10-22T13:05:17.029Z,52.00
2022-10-22T13:07:48.345Z,52.27
2022-10-22T13:10:18.519Z,51.73
2022-10-22T13:12:50.390Z,51.83
2022-10-22T13:15:23.213Z,52.26
2022-10-22T13:17:49.991Z,52.34
2022-10-22T13:20:22.613Z,51.94
2022-10-22T13:23:00.559Z,52.26
2022-10-22T13:25:35.201Z,51.97
2022-10-22T13:28:06.781Z,52.44
2022-10-22T13:30:36.536Z,52.11
2022-10-22T13:33:17.861Z,51.94
2022-10-22T13:35:44.399Z,52.05
2022-10-22T13:38:17.594Z,52.12
2022-10-22T13:40:44.136Z,52.06
2022-10-22T13:43:10.670Z,52.20
2022-10-22T13:45:37.224Z,51.97
2022-10-22T13:48:03.928Z,51.68
2022-10-22T13:50:30.502Z,51.84
2022-10-22T13:52:58.167Z,51.94
2022-10-22T13:55:27.288Z,51.44
2022-10-22T13:57:56.640Z,51.61
2022-10-22T14:00:24.032Z,51.88
2022-10-22T14:02:53.577Z,51.97
2022-10-22T14:05:20.534Z,52.05
2022-10-22T14:07:47.540Z,51.68
2022-10-22T14:10:20.882Z,51.69
2022-10-22T14:12:52.301Z,51.70
2022-10-22T14:15:22.357Z,52.04
2022-10-22T14:17:52.500Z,52.01
2022-10-22T14:20:22.214Z,51.83
2022-10-22T14:22:49.745Z,51.56
2022-10-22T14:25:18.089Z,52.06
2022-10-22T14:27:44.775Z,51.92
2022-10-22T14:30:22.585Z,51.73
2022-10-22T14:32:49.369Z,52.07
2022-10-22T14:35:18.900Z,51.82
2022-10-22T14:37:45.731Z,51.85
2022-10-22T14:40:14.526Z,51.73
2022-10-22T14:42:43.479Z,51.89
2022-10-22T14:45:22.233Z,52.00
2022-10-22T14:47:50.112Z,51.97
2022-10-22T14:50:17.376Z,52.11
2022-10-22T14:52:44.420Z,52.15
2022-10-22T14:55:12.523Z,52.21
2022-10-22T14:57:39.885Z,52.64
2022-10-22T15:00:08.960Z,52.72
2022-10-22T15:02:35.566Z,52.87
2022-10-22T15:05:02.207Z,52.62
2022-10-22T15:07:28.813Z,52.54
2022-10-22T15:09:55.399Z,52.63
2022-10-22T15:12:21.949Z,52.36
2022-10-22T15:14:48.685Z,52.34
2022-10-22T15:17:16.140Z,52.82
2022-10-22T15:19:43.698Z,52.77
2022-10-22T15:22:13.570Z,52.69
2022-10-22T15:24:43.760Z,52.69
2022-10-22T15:27:13.849Z,52.85
2022-10-22T15:29:42.480Z,52.55
2022-10-22T15:32:12.144Z,52.82
2022-10-22T15:34:39.821Z,52.79
2022-10-22T15:37:10.113Z,52.55
2022-10-22T15:39:40.283Z,52.77
2022-10-22T15:42:06.801Z,53.07
2022-10-22T15:44:33.397Z,53.18
2022-10-22T15:47:00.664Z,53.07
2022-10-22T15:49:28.361Z,52.95
2022-10-22T15:51:55.317Z,52.98
2022-10-22T15:54:25.628Z,52.62
2022-10-22T15:56:52.247Z,52.65
2022-10-22T15:59:18.825Z,52.75
2022-10-22T16:01:45.373Z,52.82
2022-10-22T16:04:12.104Z,52.68
2022-10-22T16:06:49.799Z,52.31
2022-10-22T16:09:22.257Z,52.62
2022-10-22T16:11:49.929Z,52.65
2022-10-22T16:14:18.084Z,52.58
2022-10-22T16:16:46.709Z,52.39
2022-10-22T16:19:15.164Z,52.19
2022-10-22T16:21:41.797Z,52.31
2022-10-22T16:24:09.134Z,52.12
2022-10-22T16:26:36.232Z,52.17
2022-10-22T16:29:03.840Z,52.29
2022-10-22T16:31:30.405Z,52.06
2022-10-22T16:33:57.764Z,52.15
2022-10-22T16:36:24.455Z,52.26
2022-10-22T16:38:51.073Z,52.01
2022-10-22T16:41:20.291Z,51.83
2022-10-22T16:43:48.753Z,52.03
2022-10-22T16:46:17.105Z,51.84
2022-10-22T16:48:47.549Z,51.91
2022-10-22T16:51:15.683Z,51.79
2022-10-22T16:53:42.763Z,51.76
2022-10-22T16:56:14.611Z,52.12
2022-10-22T16:58:52.160Z,52.27
2022-10-22T17:01:20.521Z,52.29
2022-10-22T17:03:47.346Z,51.56
2022-10-22T17:06:14.499Z,51.92
2022-10-22T17:08:41.611Z,51.86
2022-10-22T17:11:09.126Z,51.80
2022-10-22T17:13:36.156Z,51.81
2022-10-22T17:16:07.943Z,52.12
2022-10-22T17:18:38.230Z,51.86
2022-10-22T17:21:06.304Z,51.99
2022-10-22T17:23:32.856Z,51.64
2022-10-22T17:26:09.729Z,51.65
2022-10-22T17:28:36.741Z,51.86
2022-10-22T17:31:16.454Z,51.83
2022-10-22T17:33:43.132Z,51.78
2022-10-22T17:36:11.926Z,51.67
2022-10-22T17:38:40.259Z,51.37
2022-10-22T17:41:08.707Z,51.54
2022-10-22T17:43:37.516Z,51.77
2022-10-22T17:46:06.649Z,51.46
2022-10-22T17:48:33.500Z,51.64
2022-10-22T17:51:00.115Z,51.40
2022-10-22T17:53:27.011Z,51.60
2022-10-22T17:56:01.674Z,51.47
2022-10-22T17:58:31.280Z,51.71
2022-10-22T18:00:58.485Z,51.44
2022-10-22T18:03:25.596Z,51.68
2022-10-22T18:05:52.154Z,51.24
2022-10-22T18:08:18.741Z,51.55
2022-10-22T18:10:45.437Z,51.55
2022-10-22T18:13:12.020Z,51.10
2022-10-22T18:15:38.621Z,51.29
2022-10-22T18:18:05.991Z,51.31
2022-10-22T18:20:32.809Z,51.19
2022-10-22T18:22:59.333Z,51.28
2022-10-22T18:25:25.955Z,51.26
2022-10-22T18:27:52.544Z,51.39
2022-10-22T18:30:19.097Z,50.97
2022-10-22T18:32:45.637Z,51.00
2022-10-22T18:35:12.213Z,51.55
2022-10-22T18:37:39.905Z,50.93
2022-10-22T18:40:08.778Z,51.08
2022-10-22T18:42:39.059Z,51.11
2022-10-22T18:45:07.139Z,51.28
2022-10-22T18:47:33.684Z,51.31
2022-10-22T18:50:00.248Z,51.34
2022-10-22T18:52:27.181Z,51.33
2022-10-22T18:54:54.397Z,51.38
2022-10-22T18:57:20.973Z,51.35
2022-10-22T18:59:47.529Z,51.09
2022-10-22T19:02:17.092Z,51.20
2022-10-22T19:04:44.349Z,51.52
2022-10-22T19:07:12.246Z,51.33
2022-10-22T19:09:39.816Z,51.39
2022-10-22T19:12:06.967Z,51.08
2022-10-22T19:14:33.620Z,51.38
2022-10-22T19:17:00.188Z,51.13
2022-10-22T19:19:27.222Z,50.82
2022-10-22T19:21:56.471Z,51.28
2022-10-22T19:24:23.085Z,50.85
2022-10-22T19:26:49.877Z,51.14
2022-10-22T19:29:18.578Z,51.04
2022-10-22T19:31:45.930Z,51.14
2022-10-22T19:34:12.497Z,51.04
2022-10-22T19:36:39.101Z,51.16
2022-10-22T19:39:06.163Z,51.34
2022-10-22T19:41:33.104Z,51.27
2022-10-22T19:44:00.884Z,50.71
2022-10-22T19:46:29.182Z,51.16
2022-10-22T19:48:57.257Z,51.36
2022-10-22T19:51:26.540Z,50.99
2022-10-22T19:54:05.362Z,51.07
2022-10-22T19:56:33.229Z,51.19
2022-10-22T19:59:00.276Z,50.94
2022-10-22T20:01:27.082Z,51.31
2022-10-22T20:03:54.001Z,51.20
2022-10-22T20:06:21.845Z,51.13
2022-10-22T20:08:50.033Z,50.78
2022-10-22T20:11:22.310Z,51.07
2022-10-22T20:13:52.183Z,51.04
2022-10-22T20:16:22.970Z,50.57
2022-10-22T20:18:50.084Z,50.71
2022-10-22T20:21:19.239Z,50.84
2022-10-22T20:23:46.907Z,50.88
2022-10-22T20:26:13.521Z,51.00
2022-10-22T20:28:40.258Z,50.63
2022-10-22T20:31:11.952Z,50.88
2022-10-22T20:33:38.838Z,50.90
2022-10-22T20:36:08.569Z,51.05
2022-10-22T20:41:04.117Z,50.68
2022-10-22T20:43:30.749Z,50.86
2022-10-22T20:45:57.330Z,50.68
2022-10-22T20:48:26.789Z,51.13
2022-10-22T20:50:54.176Z,50.76
2022-10-22T20:53:21.371Z,50.96
2022-10-22T20:55:53.040Z,50.91
2022-10-22T20:58:22.252Z,50.77
2022-10-22T21:00:50.166Z,50.82
2022-10-22T21:03:16.764Z,51.04
2022-10-22T21:05:43.362Z,51.01
2022-10-22T21:08:13.295Z,51.22
2022-10-22T21:10:39.844Z,51.11
2022-10-22T21:13:06.400Z,50.80
2022-10-22T21:15:32.942Z,50.83
2022-10-22T21:17:59.506Z,50.84
2022-10-22T21:20:26.052Z,50.91
2022-10-22T21:22:52.599Z,51.10
2022-10-22T21:25:19.154Z,50.95
2022-10-22T21:27:45.684Z,50.78
2022-10-22T21:30:12.721Z,50.67
2022-10-22T21:32:39.396Z,50.91
2022-10-22T21:35:06.266Z,50.87
2022-10-22T21:40:03.792Z,50.79
2022-10-22T21:42:30.376Z,50.90
2022-10-22T21:44:56.980Z,51.02
2022-10-22T21:47:23.573Z,51.06
2022-10-22T21:49:50.101Z,50.76
2022-10-22T21:52:16.713Z,51.17
2022-10-22T21:54:43.268Z,51.02
2022-10-22T21:57:09.868Z,50.73
2022-10-22T21:59:36.485Z,50.69
2022-10-22T22:02:05.644Z,51.04
2022-10-22T22:04:32.990Z,50.90
2022-10-22T22:06:59.549Z,50.81
2022-10-22T22:09:26.123Z,51.01
2022-10-22T22:11:52.672Z,50.96
2022-10-22T22:14:19.208Z,50.74
2022-10-22T22:16:45.780Z,50.86
2022-10-22T22:19:12.502Z,51.16
2022-10-22T22:21:40.158Z,51.06
2022-10-22T22:24:07.815Z,50.87
2022-10-22T22:26:34.486Z,50.98
2022-10-22T22:29:01.586Z,50.68
2022-10-22T22:31:30.635Z,51.02
2022-10-22T22:34:02.341Z,50.81
2022-10-22T22:36:33.153Z,50.64
2022-10-22T22:38:59.692Z,50.67
2022-10-22T22:41:26.296Z,50.90
2022-10-22T22:43:52.873Z,50.99
2022-10-22T22:46:19.431Z,50.70
2022-10-22T22:48:49.168Z,50.93
2022-10-22T22:51:15.862Z,51.19
2022-10-22T22:53:42.415Z,50.99
2022-10-22T22:56:14.840Z,50.64
2022-10-22T22:58:41.636Z,50.69
2022-10-22T23:01:29.453Z,50.69
2022-10-22T23:04:01.304Z,51.03
2022-10-22T23:06:30.509Z,50.58
2022-10-22T23:08:57.442Z,50.65
2022-10-22T23:11:25.509Z,50.73
2022-10-22T23:13:54.594Z,50.59
2022-10-22T23:16:23.280Z,50.56
2022-10-22T23:18:50.364Z,50.73
2022-10-22T23:21:19.092Z,50.47
2022-10-22T23:23:46.933Z,50.64
2022-10-22T23:26:14.230Z,50.52
2022-10-22T23:28:40.942Z,50.52
2022-10-22T23:31:07.837Z,50.70
2022-10-22T23:33:35.029Z,50.85
2022-10-22T23:36:02.026Z,50.78
2022-10-22T23:38:28.728Z,50.84
2022-10-22T23:40:56.964Z,50.59
2022-10-22T23:43:24.779Z,50.49
2022-10-22T23:45:51.645Z,50.86
2022-10-22T23:48:18.400Z,50.44
2022-10-22T23:50:45.017Z,50.72
2022-10-22T23:53:11.715Z,50.43
2022-10-22T23:55:39.290Z,50.80
2022-10-22T23:58:05.861Z,50.63
